Time;durP1;ratioP1;P1;durP2;ratioP2;P2;SDS_P1;SDS_P2;PMS_P1;PMS_P2;Temp;Humidity;BMP_temperature;BMP_pressure;BME280_temperature;BME280_humidity;BME280_pressure;Samples;Min_cycle;Max_cycle;Signal;HPM_P1;HPM_P2
2022/05/08 00:01:51;;;;;;;;;;;;;;;13.34;34.98;99787.91;4796391;29;20055;-76
2022/05/08 00:04:17;;;;;;;8.65;4.80;;;;;;;13.30;35.10;99801.84;4793301;29;20382;-76
2022/05/08 00:06:43;;;;;;;;;;;;;;;13.34;34.99;99787.91;4800749;29;20054;-75
2022/05/08 00:09:09;;;;;;;9.23;4.80;;;;;;;13.30;35.17;99786.22;4799227;29;20437;-75
2022/05/08 00:11:35;;;;;;;9.85;5.25;;;;;;;13.25;35.28;99783.69;4804485;29;20057;-75
2022/05/08 00:14:01;;;;;;;;;;;;;;;13.36;34.98;99786.13;4796020;29;20039;-77
2022/05/08 00:16:26;;;;;;;10.90;5.50;;;;;;;13.25;35.41;99785.41;4799511;29;19921;-76
2022/05/08 00:18:52;;;;;;;;;;;;;;;13.25;35.04;99783.69;4794652;29;20042;-76
2022/05/08 00:21:18;;;;;;;7.82;4.78;;;;;;;13.24;35.60;99776.75;4803089;29;20373;-76
2022/05/08 00:23:43;;;;;;;;;;;;;;;13.31;34.89;99773.16;4793623;29;20043;-78
2022/05/08 00:26:09;;;;;;;8.80;4.45;;;;;;;13.25;35.75;99775.00;4803293;29;20408;-76
2022/05/08 00:28:35;;;;;;;;;;;;;;;13.25;35.45;99778.47;4792258;29;20046;-76
2022/05/08 00:31:01;;;;;;;9.45;4.65;;;;;;;13.17;35.88;99759.44;4799373;29;19925;-76
2022/05/08 00:33:26;;;;;;;;;;;;;;;13.28;35.25;99772.34;4798423;29;20092;-76
2022/05/08 00:35:53;;;;;;;9.65;4.28;;;;;;;13.21;35.73;99772.38;4791843;29;20382;-76
2022/05/08 00:38:19;;;;;;;11.18;4.68;;;;;;;13.15;35.75;99766.41;4795131;29;20078;-76
2022/05/08 00:40:45;;;;;;;;;;;;;;;13.22;35.76;99775.88;4800710;29;20074;-75
2022/05/08 00:43:28;;;;;;;13.40;5.30;;;;;;;13.13;36.18;99769.00;4771691;30;19924;-75
2022/05/08 00:45:55;;;;;;;7.07;4.72;;;;;;;13.09;36.06;99761.25;4790236;29;20057;-77
2022/05/08 00:48:21;;;;;;;9.88;4.63;;;;;;;13.11;35.97;99772.53;4781772;30;20039;-77
2022/05/08 00:50:46;;;;;;;;;;;;;;;13.16;35.40;99763.78;4800789;29;20068;-77
2022/05/08 00:53:12;;;;;;;9.70;5.35;;;;;;;13.09;36.01;99758.66;4793809;29;19925;-75
2022/05/08 00:55:37;;;;;;;;;;;;;;;13.13;36.13;99763.81;4794370;29;20051;-76
2022/05/08 00:58:03;;;;;;;6.88;4.43;;;;;;;12.99;36.43;99760.50;4787551;29;20089;-76
2022/05/08 01:00:29;;;;;;;;;;;;;;;13.01;36.08;99758.75;4786425;29;20047;-77
2022/05/08 01:02:58;;;;;;;6.43;4.40;;;;;;;12.98;36.09;99758.81;4788676;29;19951;-76
2022/05/08 01:05:23;;;;;;;8.13;4.60;;;;;;;12.96;36.33;99756.19;4805603;29;20043;-75
2022/05/08 01:07:49;;;;;;;;;;;;;;;13.01;36.15;99758.75;4806036;29;20394;-76
2022/05/08 01:10:15;;;;;;;8.38;5.00;;;;;;;12.93;36.34;99752.78;4804051;29;19970;-76
2022/05/08 01:12:44;;;;;;;;;;;;;;;12.99;36.38;99750.09;4775390;29;20045;-77
2022/05/08 01:15:14;;;;;;;10.02;4.30;;;;;;;12.91;36.47;99758.00;4790012;29;19969;-76
2022/05/08 01:17:40;;;;;;;8.48;4.68;;;;;;;12.95;36.31;99748.41;4787286;29;20043;-75
2022/05/08 01:20:05;;;;;;;;;;;;;;;13.05;35.77;99754.38;4786660;30;20497;-76
2022/05/08 01:22:32;;;;;;;10.52;4.63;;;;;;;12.94;36.54;99737.13;4787320;29;20409;-76
2022/05/08 01:24:58;;;;;;;6.78;4.00;;;;;;;12.93;36.67;99748.44;4797547;29;20361;-75
2022/05/08 01:27:24;;;;;;;8.20;4.82;;;;;;;12.89;36.53;99748.50;4799749;29;20062;-76
2022/05/08 01:29:50;;;;;;;;;;;;;;;13.03;36.30;99743.97;4789423;29;20479;-76
2022/05/08 01:32:15;;;;;;;9.00;4.28;;;;;;;12.95;36.64;99738.00;4794657;29;19921;-76
2022/05/08 01:34:41;;;;;;;;;;;;;;;12.98;36.18;99749.25;4800106;29;20058;-77
2022/05/08 01:37:06;;;;;;;10.27;4.80;;;;;;;12.85;36.50;99737.25;4771381;30;19921;-76
2022/05/08 01:39:32;;;;;;;;;;;;;;;12.88;36.05;99742.44;4787785;29;20134;-76
2022/05/08 01:41:58;;;;;;;9.85;4.60;;;;;;;12.80;36.80;99733.84;4799557;29;19949;-77
2022/05/08 01:44:24;;;;;;;7.68;4.53;;;;;;;12.78;36.90;99742.53;4795938;29;20095;-77
2022/05/08 01:48:21;;;;;;;;;;;;;;;12.86;36.08;99738.97;4789897;29;20069;-75
2022/05/08 01:49:35;;;;;;;7.63;4.00;;;;;;;12.86;36.61;99733.75;4796454;29;20022;-77
2022/05/08 01:52:01;;;;;;;;;;;;;;;12.92;35.74;99738.91;4807254;29;20587;-75
2022/05/08 01:54:27;;;;;;;9.05;4.20;;;;;;;12.80;36.34;99730.38;4795534;29;20408;-77
2022/05/08 01:56:52;;;;;;;;;;;;;;;12.89;36.72;99738.09;4799464;29;20047;-76
2022/05/08 01:59:18;;;;;;;7.38;4.05;;;;;;;12.80;37.01;99736.44;4802978;29;19968;-76
2022/05/08 02:01:44;;;;;;;;;;;;;;;12.85;36.05;99744.22;4789343;29;20043;-76
2022/05/08 02:04:15;;;;;;;8.43;3.92;;;;;;;12.71;36.74;99740.03;4801704;29;19921;-77
2022/05/08 02:06:44;;;;;;;11.40;4.32;;;;;;;12.72;37.01;99728.72;4795183;29;20061;-76
2022/05/08 02:09:10;;;;;;;13.60;4.75;;;;;;;12.72;37.26;99733.94;4798079;29;20039;-76
2022/05/08 02:11:35;;;;;;;;;;;;;;;12.75;36.89;99737.38;4803206;29;20400;-76
2022/05/08 02:14:02;;;;;;;7.15;4.07;;;;;;;12.64;37.45;99725.34;4790180;29;19917;-77
2022/05/08 02:16:29;;;;;;;9.48;4.80;;;;;;;12.59;37.27;99729.75;4802958;29;20047;-76
2022/05/08 02:18:55;;;;;;;8.45;4.18;;;;;;;12.53;37.30;99728.97;4799922;29;20480;-76
2022/05/08 02:21:20;;;;;;;;;;;;;;;12.60;37.14;99744.50;4802657;29;20043;-76
2022/05/08 02:23:46;;;;;;;11.40;4.38;;;;;;;12.59;37.58;99734.09;4793668;29;19957;-77
2022/05/08 02:26:12;;;;;;;;;;;;;;;12.67;36.96;99733.13;4796557;29;20104;-74
2022/05/08 02:28:39;;;;;;;8.40;4.27;;;;;;;12.63;37.27;99734.03;4802382;29;20381;-76
2022/05/08 02:31:05;;;;;;;7.68;4.28;;;;;;;12.56;37.38;99735.00;4797309;29;20288;-75
2022/05/08 02:33:30;;;;;;;;;;;;;;;12.60;37.69;99730.59;4779093;29;20411;-76
2022/05/08 02:35:56;;;;;;;7.53;4.43;;;;;;;12.56;37.40;99734.13;4800023;29;19929;-76
2022/05/08 02:38:21;;;;;;;;;;;;;;;12.63;37.54;99735.78;4801181;29;20042;-76
2022/05/08 02:40:47;;;;;;;7.32;4.13;;;;;;;12.53;37.50;99734.16;4794921;29;20389;-76
2022/05/08 02:43:14;;;;;;;;;;;;;;;12.58;37.68;99730.63;4806477;29;20066;-76
2022/05/08 02:45:40;;;;;;;7.75;3.80;;;;;;;12.56;38.22;99732.41;4791170;29;19929;-76
2022/05/08 02:48:07;;;;;;;;;;;;;;;12.63;37.78;99736.63;4798617;29;20042;-76
2022/05/08 02:50:33;;;;;;;;;;;;;;;12.65;37.85;99734.91;4795185;29;19993;-76
2022/05/08 02:52:59;;;;;;;7.57;4.28;;;;;;;12.58;38.13;99733.22;4797948;29;19917;-76
2022/05/08 03:00:53;;;;;;;6.22;4.20;;;;;;;12.65;38.25;99734.03;4793474;29;20522;-76
2022/05/08 03:03:19;;;;;;;;;;;;;;;12.72;37.92;99736.53;4801008;29;20042;-76
2022/05/08 03:05:46;;;;;;;10.23;4.60;;;;;;;12.68;38.16;99733.97;4789244;29;19936;-76
2022/05/08 03:08:14;;;;;;;9.02;4.70;;;;;;;12.80;37.77;99727.78;4772882;30;20050;-76
2022/05/08 03:13:25;;;;;;;9.60;4.43;;;;;;;12.91;37.96;99731.09;4793859;29;20057;-77
2022/05/08 03:15:51;;;;;;;;;;;;;;;13.08;37.06;99736.09;4796401;29;20039;-76
2022/05/08 03:18:18;;;;;;;9.48;4.35;;;;;;;13.05;37.60;99736.13;4801311;29;19925;-76
2022/05/08 03:20:46;;;;;;;7.07;4.20;;;;;;;12.93;37.58;99730.22;4797513;29;20038;-76
2022/05/08 03:23:12;;;;;;;9.90;4.80;;;;;;;12.92;37.51;99738.91;4802085;29;20054;-76
2022/05/08 03:25:37;;;;;;;;;;;;;;;13.01;37.50;99737.06;4799471;29;20039;-76
2022/05/08 03:28:03;;;;;;;10.07;4.63;;;;;;;12.93;37.58;99731.97;4773044;29;19925;-76
2022/05/08 03:30:29;;;;;;;;;;;;;;;13.02;37.15;99729.25;4793239;29;20073;-77
2022/05/08 03:32:56;;;;;;;7.05;4.00;;;;;;;12.97;37.72;99733.66;4787597;29;19921;-75
2022/05/08 03:35:21;;;;;;;8.57;4.28;;;;;;;12.95;37.73;99723.22;4772864;29;20407;-77
2022/05/08 03:37:47;;;;;;;;;;;;;;;13.05;37.42;99744.81;4795962;29;20059;-75
2022/05/08 03:40:13;;;;;;;9.35;4.57;;;;;;;13.00;38.19;99719.72;4793861;29;19922;-76
2022/05/08 03:42:38;;;;;;;;;;;;;;;13.10;37.64;99736.94;4801084;29;20074;-76
2022/05/08 03:45:04;;;;;;;8.45;4.57;;;;;;;13.15;37.68;99725.59;4799169;29;19948;-76
2022/05/08 03:47:30;;;;;;;;;;;;;;;13.29;37.09;99730.66;4791073;29;20070;-76
2022/05/08 03:49:56;;;;;;;8.38;4.30;;;;;;;13.16;37.44;99719.50;4795699;29;20311;-75
2022/05/08 03:52:21;;;;;;;8.48;5.07;;;;;;;13.18;37.46;99733.34;4792609;29;20066;-76
2022/05/08 03:54:47;;;;;;;;;;;;;;;13.39;36.81;99728.78;4794037;29;20499;-77
2022/05/08 03:57:13;;;;;;;12.23;4.82;;;;;;;13.37;36.95;99718.34;4794485;29;19973;-76
2022/05/08 03:59:38;;;;;;;;;;;;;;;13.46;36.65;99719.97;4801343;29;20092;-77
2022/05/08 04:02:04;;;;;;;13.82;5.15;;;;;;;13.41;37.15;99727.84;4788587;29;20389;-76
2022/05/08 04:04:30;;;;;;;;;;;;;;;13.52;36.75;99719.88;4789901;29;20039;-75
2022/05/08 04:06:55;;;;;;;11.68;4.95;;;;;;;13.52;36.75;99713.81;4799349;29;19921;-77
2022/05/08 04:09:21;;;;;;;;;;;;;;;13.60;36.58;99710.19;4799817;29;20103;-76
2022/05/08 04:11:46;;;;;;;11.73;5.20;;;;;;;13.53;36.58;99711.19;4800944;29;20382;-76
2022/05/08 04:14:12;;;;;;;;;;;;;;;13.62;36.36;99716.25;4797541;29;20034;-74
2022/05/08 04:16:38;;;;;;;8.95;4.70;;;;;;;13.58;36.99;99709.34;4792510;29;19913;-76
2022/05/08 04:19:05;;;;;;;;;;;;;;;13.67;36.21;99701.41;4799650;29;20408;-76
2022/05/08 04:21:31;;;;;;;7.68;4.68;;;;;;;13.71;36.37;99704.81;4789181;29;19925;-76
2022/05/08 04:26:40;;;;;;;7.97;4.72;;;;;;;13.71;36.37;99700.47;4800025;29;19989;-76
2022/05/08 04:29:07;;;;;;;10.25;4.60;;;;;;;13.73;36.65;99700.44;4793283;29;20072;-77
2022/05/08 04:31:33;;;;;;;;;;;;;;;13.85;35.94;99702.00;4795177;29;20047;-75
2022/05/08 04:33:59;;;;;;;11.45;5.32;;;;;;;13.90;36.29;99700.16;4799198;29;20344;-76
2022/05/08 04:36:24;;;;;;;;;;;;;;;13.93;35.94;99708.81;4794878;29;20051;-75
2022/05/08 04:38:50;;;;;;;10.50;4.43;;;;;;;13.90;36.19;99707.97;4787288;29;19977;-77
2022/05/08 04:41:16;;;;;;;;;;;;;;;14.02;35.77;99699.97;4801669;29;20050;-77
2022/05/08 04:43:42;;;;;;;11.23;5.15;;;;;;;13.86;36.30;99691.53;4783271;29;20444;-78
2022/05/08 04:46:08;;;;;;;;;;;;;;;13.88;36.05;99700.19;4762852;30;20108;-77
2022/05/08 04:48:34;;;;;;;12.10;5.30;;;;;;;13.65;36.91;99681.44;4785051;29;19974;-77
2022/05/08 04:50:59;;;;;;;;;;;;;;;13.76;36.57;99697.78;4792737;29;20043;-79
2022/05/08 04:53:25;;;;;;;12.63;4.85;;;;;;;13.62;37.29;99684.13;4779500;29;19982;-78
2022/05/08 04:55:50;;;;;;;;;;;;;;;13.86;36.57;99698.50;4791944;29;20054;-76
2022/05/08 04:58:16;;;;;;;8.65;4.60;;;;;;;13.83;37.17;99699.38;4796642;29;19918;-77
2022/05/08 05:00:42;;;;;;;;;;;;;;;13.94;36.81;99701.84;4800011;29;20050;-77
2022/05/08 05:03:07;;;;;;;8.23;4.75;;;;;;;13.76;37.14;99692.56;4793255;29;19917;-79
2022/05/08 05:05:34;;;;;;;;;;;;;;;13.86;36.87;99708.91;4787171;30;20047;-78
2022/05/08 05:07:59;;;;;;;11.10;4.90;;;;;;;13.79;37.26;99697.75;4791670;29;19925;-77
2022/05/08 05:10:25;;;;;;;;;;;;;;;13.92;36.62;99709.66;4789825;29;20088;-77
2022/05/08 05:12:52;;;;;;;10.27;5.28;;;;;;;13.89;36.84;99695.84;4781100;29;19973;-78
2022/05/08 05:15:18;;;;;;;8.50;4.47;;;;;;;13.86;36.73;99686.31;4781966;29;20127;-78
2022/05/08 05:17:43;;;;;;;;;;;;;;;13.91;36.82;99699.25;4779617;29;20416;-77
2022/05/08 05:20:09;;;;;;;9.23;5.13;;;;;;;13.83;37.26;99688.09;4788797;29;19929;-79
2022/05/08 05:22:35;;;;;;;;;;;;;;;13.96;37.05;99687.00;4796303;29;20031;-79
2022/05/08 05:25:03;;;;;;;11.20;5.28;;;;;;;14.04;36.93;99685.13;4793064;29;19955;-79
2022/05/08 05:27:28;;;;;;;11.45;4.95;;;;;;;14.04;36.68;99666.88;4780168;29;20038;-78
2022/05/08 05:29:54;;;;;;;;;;;;;;;14.13;36.63;99687.56;4789008;29;20126;-78
2022/05/08 05:32:19;;;;;;;7.53;4.70;;;;;;;14.13;36.95;99678.88;4791408;29;19917;-79
2022/05/08 05:34:45;;;;;;;;;;;;;;;14.16;37.26;99684.06;4787553;29;20058;-79
2022/05/08 05:37:11;;;;;;;10.90;5.07;;;;;;;14.19;37.05;99661.34;4789497;29;19970;-78
2022/05/08 05:39:36;;;;;;;;;;;;;;;14.39;36.43;99679.25;4792708;29;20054;-79
2022/05/08 05:42:02;;;;;;;8.18;4.60;;;;;;;14.45;36.59;99665.22;4777489;29;19957;-78
2022/05/08 05:44:28;;;;;;;;;;;;;;;14.64;36.06;99674.44;4789938;29;20046;-78
2022/05/08 05:49:38;;;;;;;8.25;5.20;;;;;;;14.63;36.99;99649.22;4790082;29;20087;-78
2022/05/08 05:52:05;;;;;;;;;;;;;;;14.81;36.07;99671.47;4761118;29;20074;-79
2022/05/08 05:54:31;;;;;;;8.05;4.57;;;;;;;14.64;36.25;99632.66;4790006;29;19925;-79
2022/05/08 05:56:57;;;;;;;;;;;;;;;14.83;36.33;99663.59;4791236;29;20034;-79
2022/05/08 05:59:23;;;;;;;14.00;5.32;;;;;;;14.76;37.05;99643.75;4779055;29;20309;-80
2022/05/08 06:01:48;;;;;;;;;;;;;;;14.89;36.53;99659.13;4790111;29;20039;-78
2022/05/08 06:04:14;;;;;;;8.85;4.97;;;;;;;14.91;36.62;99646.88;4796109;29;19942;-79
2022/05/08 06:06:39;;;;;;;;;;;;;;;14.99;36.70;99651.94;4801398;29;20035;-77
2022/05/08 06:09:07;;;;;;;7.88;5.03;;;;;;;14.94;36.67;99643.34;4789533;29;20019;-78
2022/05/08 06:11:32;;;;;;;16.02;5.00;;;;;;;14.96;37.24;99644.16;4777198;29;20030;-77
2022/05/08 06:13:58;;;;;;;;;;;;;;;15.07;37.11;99650.00;4792606;29;20043;-78
2022/05/08 06:16:23;;;;;;;9.15;4.57;;;;;;;15.05;37.46;99657.03;4788473;29;19944;-76
2022/05/08 06:18:49;;;;;;;;;;;;;;;15.14;36.42;99661.19;4800780;29;20074;-75
2022/05/08 06:21:14;;;;;;;8.40;4.88;;;;;;;15.21;37.65;99653.19;4789274;29;19921;-75
2022/05/08 06:23:40;;;;;;;;;;;;;;;15.34;36.62;99665.94;4802638;29;20047;-78
2022/05/08 06:26:07;;;;;;;;;;;;;;;15.41;36.83;99657.06;4777059;30;20258;-74
2022/05/08 06:28:34;;;;;;;10.85;4.97;;;;;;;15.38;36.89;99646.69;4803470;29;19927;-76
2022/05/08 06:31:00;;;;;;;11.23;4.82;;;;;;;15.47;36.60;99659.53;4791576;29;20400;-77
2022/05/08 06:33:26;;;;;;;9.15;5.20;;;;;;;15.40;36.65;99635.31;4777803;29;20129;-79
2022/05/08 06:35:55;;;;;;;8.68;4.75;;;;;;;15.52;36.85;99663.75;4792699;29;20412;-80
2022/05/08 06:38:20;;;;;;;;;;;;;;;15.69;36.08;99671.22;4807173;29;20046;-80
2022/05/08 06:40:46;;;;;;;10.57;5.55;;;;;;;15.75;35.64;99662.34;4807268;29;19951;-77
2022/05/08 06:43:12;;;;;;;11.82;5.70;;;;;;;15.73;35.55;99654.56;4806744;29;20051;-80
2022/05/08 06:45:38;;;;;;;11.88;5.45;;;;;;;15.79;35.98;99656.16;4773685;30;20039;-76
2022/05/08 06:48:06;;;;;;;9.68;5.25;;;;;;;15.67;35.94;99644.25;4792338;29;20412;-76
2022/05/08 06:50:33;;;;;;;11.13;5.80;;;;;;;15.70;35.90;99651.16;4767334;30;20042;-77
2022/05/08 06:52:59;;;;;;;12.63;5.30;;;;;;;15.61;36.24;99639.13;4793065;29;20051;-77
2022/05/08 06:55:25;;;;;;;10.27;5.20;;;;;;;15.64;36.18;99649.56;4780407;30;20102;-77
2022/05/08 06:57:50;;;;;;;;;;;;;;;15.80;35.87;99664.84;4760537;29;20054;-76
2022/05/08 07:03:07;;;;;;;7.95;4.85;;;;;;;15.72;36.29;99647.63;4793613;29;20053;-75
2022/05/08 07:05:36;;;;;;;12.85;5.15;;;;;;;15.82;36.17;99647.38;4790605;29;20584;-76
2022/05/08 07:08:02;;;;;;;9.90;5.18;;;;;;;15.74;36.50;99630.13;4774628;30;20050;-77
2022/05/08 07:10:28;;;;;;;9.30;5.38;;;;;;;15.88;36.01;99629.75;4786053;29;20047;-79
2022/05/08 07:12:55;;;;;;;12.13;5.03;;;;;;;16.08;36.15;99647.56;4788025;29;20587;-76
2022/05/08 07:15:21;;;;;;;8.80;4.93;;;;;;;16.17;35.94;99649.03;4775174;29;20047;-77
2022/05/08 07:17:47;;;;;;;9.45;5.07;;;;;;;16.25;35.56;99640.09;4784091;30;20385;-76
2022/05/08 07:20:12;;;;;;;9.77;5.03;;;;;;;16.36;35.70;99633.72;4801512;29;20049;-76
2022/05/08 07:22:39;;;;;;;11.43;5.18;;;;;;;16.51;35.33;99633.28;4794232;29;20046;-77
2022/05/08 07:25:05;;;;;;;10.25;5.35;;;;;;;16.74;34.88;99624.78;4787586;30;20075;-76
2022/05/08 07:27:36;;;;;;;11.18;5.63;;;;;;;16.83;34.91;99618.41;4800603;29;20100;-77
2022/05/08 07:30:04;;;;;;;9.73;5.55;;;;;;;17.07;34.63;99636.00;4765372;30;20043;-78
2022/05/08 07:32:30;;;;;;;11.15;5.38;;;;;;;17.22;34.17;99611.06;4774964;29;20043;-75
2022/05/08 07:37:41;;;;;;;11.88;6.18;;;;;;;17.96;33.42;99625.22;4776471;29;20047;-76
2022/05/08 07:40:07;;;;;;;9.80;5.45;;;;;;;18.12;32.71;99608.03;4772086;30;20083;-76
2022/05/08 07:42:33;;;;;;;16.48;6.05;;;;;;;18.34;32.24;99625.66;4791807;29;20111;-77
2022/05/08 07:44:58;;;;;;;10.07;5.85;;;;;;;18.34;32.23;99620.38;4795592;29;20036;-76
2022/05/08 07:47:24;;;;;;;9.93;5.50;;;;;;;18.29;32.64;99618.78;4786928;29;20054;-78
2022/05/08 07:49:50;;;;;;;8.40;5.65;;;;;;;18.26;32.72;99623.28;4796128;29;20038;-77
2022/05/08 07:52:16;;;;;;;10.77;5.60;;;;;;;18.14;32.84;99608.81;4799830;29;20062;-77
2022/05/08 07:54:44;;;;;;;10.65;5.90;;;;;;;18.20;32.90;99607.75;4794004;29;20108;-77
2022/05/08 07:57:09;;;;;;;12.82;5.72;;;;;;;18.34;33.04;99612.50;4796829;29;20509;-76
2022/05/08 07:59:35;;;;;;;11.98;5.85;;;;;;;18.50;32.26;99616.28;4799054;29;20046;-77
2022/05/08 08:02:02;;;;;;;10.90;5.90;;;;;;;18.61;31.86;99613.25;4800452;29;20051;-77
2022/05/08 08:04:28;;;;;;;11.75;5.55;;;;;;;18.83;32.23;99603.69;4758991;30;20483;-77
2022/05/08 08:06:54;;;;;;;12.13;6.15;;;;;;;18.99;31.82;99583.75;4771698;30;20059;-75
2022/05/08 08:09:20;;;;;;;12.50;5.55;;;;;;;19.13;31.52;99584.97;4788717;29;20492;-77
2022/05/08 08:11:47;;;;;;;10.25;5.28;;;;;;;19.16;31.37;99585.72;4786589;30;20047;-76
2022/05/08 08:14:13;;;;;;;9.93;5.10;;;;;;;19.32;31.10;99595.59;4780617;30;20043;-77
2022/05/08 08:16:39;;;;;;;11.55;5.25;;;;;;;19.39;31.02;99576.03;4786580;29;20522;-76
2022/05/08 08:19:05;;;;;;;11.25;5.40;;;;;;;19.61;30.25;99592.66;4794848;29;20039;-77
2022/05/08 08:21:31;;;;;;;11.85;4.85;;;;;;;19.60;30.13;99566.34;4793082;29;20577;-76
2022/05/08 08:23:57;;;;;;;6.45;4.60;;;;;;;19.68;30.38;99572.19;4798438;29;20411;-77
2022/05/08 08:26:23;;;;;;;11.02;5.00;;;;;;;19.70;30.45;99586.13;4789045;29;20046;-77
2022/05/08 08:28:49;;;;;;;10.40;4.88;;;;;;;19.63;29.76;99576.78;4786789;29;20061;-77
2022/05/08 08:31:15;;;;;;;10.70;4.70;;;;;;;19.85;29.61;99564.44;4779225;29;20130;-75
2022/05/08 08:33:41;;;;;;;9.52;4.80;;;;;;;20.10;29.09;99572.09;4783965;29;20154;-76
2022/05/08 08:36:10;;;;;;;11.60;5.22;;;;;;;20.39;28.97;99575.19;4779124;29;20043;-76
2022/05/08 08:38:36;;;;;;;11.95;4.63;;;;;;;20.77;28.40;99576.94;4799224;29;20126;-77
2022/05/08 08:41:04;;;;;;;10.82;4.88;;;;;;;21.00;28.02;99567.06;4793377;29;20047;-75
2022/05/08 08:47:42;;;;;;;8.93;4.93;;;;;;;21.01;28.32;99550.31;4764173;30;20617;-76
2022/05/08 08:49:19;;;;;;;10.50;4.82;;;;;;;20.85;27.84;99557.25;4788424;29;20051;-76
2022/05/08 08:51:44;;;;;;;10.90;4.57;;;;;;;20.72;27.96;99568.41;4788497;29;20112;-77
2022/05/08 08:54:10;;;;;;;10.00;4.40;;;;;;;20.95;27.85;99558.53;4802739;29;20046;-77
2022/05/08 08:56:36;;;;;;;9.20;4.40;;;;;;;21.36;26.77;99551.25;4760379;30;20051;-77
2022/05/08 08:59:02;;;;;;;14.23;4.40;;;;;;;21.46;26.60;99564.84;4756798;29;20047;-76
2022/05/08 09:01:32;;;;;;;12.32;4.88;;;;;;;21.44;26.65;99549.09;4795571;29;20043;-76
2022/05/08 09:04:00;;;;;;;12.38;4.38;;;;;;;21.22;27.28;99557.19;4789971;30;20051;-76
2022/05/08 09:06:37;;;;;;;11.10;4.90;;;;;;;20.93;27.42;99547.19;4761792;30;20035;-77
2022/05/08 09:09:24;;;;;;;12.68;5.13;;;;;;;20.71;28.21;99571.06;4802360;29;20067;-76
2022/05/08 09:11:52;;;;;;;8.15;4.05;;;;;;;20.58;28.21;99547.09;4760511;30;20039;-76
2022/05/08 09:14:34;;;;;;;9.38;4.03;;;;;;;20.56;28.55;99568.22;4769971;29;20058;-76
2022/05/08 09:17:00;;;;;;;9.63;4.53;;;;;;;20.31;29.11;99557.09;4790152;29;20419;-77
2022/05/08 09:19:37;;;;;;;14.95;4.38;;;;;;;20.17;29.14;99564.78;4802305;29;20054;-76
2022/05/08 09:22:07;;;;;;;11.73;4.75;;;;;;;20.23;29.17;99551.31;4786687;30;20047;-76
2022/05/08 09:24:33;;;;;;;8.50;3.92;;;;;;;20.56;29.14;99541.03;4782004;30;20039;-77
2022/05/08 09:27:12;;;;;;;11.30;4.43;;;;;;;21.02;28.64;99550.22;4775109;30;20418;-76
2022/05/08 09:29:39;;;;;;;11.05;4.40;;;;;;;21.14;28.28;99551.44;4801437;29;20042;-75
2022/05/08 09:32:05;;;;;;;9.82;4.50;;;;;;;21.40;28.28;99530.84;4803909;29;20066;-76
2022/05/08 09:34:33;;;;;;;9.63;4.18;;;;;;;21.70;27.57;99516.06;4774518;30;20070;-77
2022/05/08 09:37:08;;;;;;;10.60;4.35;;;;;;;22.01;27.44;99514.44;4789907;29;20039;-75
2022/05/08 09:39:34;;;;;;;19.60;5.03;;;;;;;22.29;26.88;99521.78;4800778;29;20544;-76
2022/05/08 09:41:59;;;;;;;11.93;4.75;;;;;;;22.41;26.73;99520.25;4754539;29;20050;-77
2022/05/08 09:44:25;;;;;;;13.45;5.60;;;;;;;22.63;26.26;99496.94;4789135;29;20097;-77
2022/05/08 09:46:51;;;;;;;10.00;4.60;;;;;;;22.91;26.31;99512.16;4801619;29;20488;-78
2022/05/08 09:49:23;;;;;;;10.68;3.88;;;;;;;23.15;25.75;99509.88;4795888;29;20099;-76
2022/05/08 09:51:49;;;;;;;16.00;5.18;;;;;;;23.37;25.27;99508.59;4788918;29;20063;-75
2022/05/08 09:54:16;;;;;;;8.25;5.03;;;;;;;23.26;26.48;99507.44;4802805;29;20100;-77
2022/05/08 09:56:44;;;;;;;13.15;5.15;;;;;;;23.41;25.63;99494.25;4790794;29;20392;-76
2022/05/08 09:59:10;;;;;;;13.48;5.15;;;;;;;23.54;25.51;99479.34;4786935;29;20460;-77
2022/05/08 10:01:40;;;;;;;11.95;5.40;;;;;;;23.84;25.68;99488.09;4787106;30;20134;-77
2022/05/08 10:04:06;;;;;;;12.82;5.20;;;;;;;24.09;25.04;99481.28;4801387;29;20039;-79
2022/05/08 10:06:33;;;;;;;14.63;5.88;;;;;;;24.16;25.24;99495.84;4794470;29;20094;-76
2022/05/08 10:13:53;;;;;;;15.93;5.60;;;;;;;23.95;24.90;99479.47;4795208;29;20185;-76
2022/05/08 10:14:30;;;;;;;13.55;7.88;;;;;;;23.18;26.40;99493.81;4796421;29;20567;-76
2022/05/08 10:17:05;;;;;;;26.15;7.70;;;;;;;22.94;26.58;99511.97;4774399;30;20050;-77
2022/05/08 10:19:31;;;;;;;21.23;7.38;;;;;;;22.76;26.86;99484.75;4789017;29;20082;-75
2022/05/08 10:22:06;;;;;;;10.82;6.03;;;;;;;22.65;26.85;99484.50;4792629;29;20063;-76
2022/05/08 10:24:47;;;;;;;11.57;5.43;;;;;;;22.67;27.27;99476.47;4794024;29;20060;-77
2022/05/08 10:27:20;;;;;;;13.60;5.07;;;;;;;22.77;27.06;99489.13;4782917;30;20051;-77
2022/05/08 10:29:57;;;;;;;13.45;5.05;;;;;;;22.78;27.30;99480.25;4794318;29;20062;-77
2022/05/08 10:32:28;;;;;;;11.75;5.47;;;;;;;23.01;27.08;99476.28;4794335;29;20035;-76
2022/05/08 10:35:13;;;;;;;11.07;5.00;;;;;;;23.16;27.13;99484.28;4802165;29;20373;-76
2022/05/08 10:37:51;;;;;;;10.73;4.85;;;;;;;23.23;26.90;99470.59;4790508;29;20125;-76
2022/05/08 10:40:23;;;;;;;8.65;4.53;;;;;;;23.43;26.60;99492.38;4789818;29;20047;-77
2022/05/08 10:42:54;;;;;;;6.93;3.95;;;;;;;23.58;26.36;99454.38;4789382;29;20406;-78
2022/05/08 10:45:37;;;;;;;7.72;4.38;;;;;;;23.53;26.38;99467.06;4804082;29;20047;-77
2022/05/08 10:48:14;;;;;;;11.98;4.95;;;;;;;22.95;27.13;99449.34;4797991;29;20043;-77
2022/05/08 10:50:44;;;;;;;7.72;4.45;;;;;;;22.90;27.33;99457.53;4761496;29;20046;-75
2022/05/08 10:53:35;;;;;;;11.43;4.50;;;;;;;23.18;27.01;99464.69;4805640;29;20411;-77
2022/05/08 10:56:09;;;;;;;8.45;4.40;;;;;;;23.55;26.56;99449.28;4791611;29;20067;-76
2022/05/08 10:58:37;;;;;;;7.10;4.13;;;;;;;23.97;26.24;99439.66;4804612;29;20525;-76
2022/05/08 11:01:04;;;;;;;7.32;4.28;;;;;;;24.33;26.21;99432.03;4795457;29;20070;-76
2022/05/08 11:03:30;;;;;;;8.70;4.40;;;;;;;24.63;25.49;99438.97;4770769;30;20039;-76
2022/05/08 11:05:57;;;;;;;7.85;4.30;;;;;;;24.77;25.28;99415.03;4764187;30;20484;-76
2022/05/08 11:08:33;;;;;;;12.02;4.22;;;;;;;25.05;25.44;99435.25;4789500;29;20106;-76
2022/05/08 11:11:09;;;;;;;7.85;3.67;;;;;;;24.91;25.43;99439.78;4782480;30;20043;-76
2022/05/08 11:13:40;;;;;;;8.40;3.63;;;;;;;24.72;25.57;99417.13;4792257;29;20051;-76
2022/05/08 11:16:06;;;;;;;7.90;3.90;;;;;;;25.03;25.32;99425.69;4791585;29;20043;-77
2022/05/08 11:18:31;;;;;;;6.22;3.63;;;;;;;25.28;25.32;99441.69;4801290;29;20057;-77
2022/05/08 11:20:59;;;;;;;11.27;3.90;;;;;;;25.04;25.67;99416.78;4794026;29;20050;-76
2022/05/08 11:23:31;;;;;;;6.65;4.03;;;;;;;25.00;25.86;99421.44;4794583;29;20415;-77
2022/05/08 11:25:58;;;;;;;6.45;3.97;;;;;;;24.92;25.58;99413.13;4773062;30;20039;-77
2022/05/08 11:28:25;;;;;;;10.57;3.75;;;;;;;24.78;26.01;99422.03;4772955;30;20507;-77
2022/05/08 11:30:51;;;;;;;9.23;4.00;;;;;;;24.20;27.23;99394.00;4800379;29;20073;-77
2022/05/08 11:36:04;;;;;;;6.95;3.90;;;;;;;24.11;27.54;99391.94;4774753;29;20535;-76
2022/05/08 11:38:45;;;;;;;11.32;4.05;;;;;;;23.76;28.31;99396.81;4797379;29;20039;-77
2022/05/08 11:41:15;;;;;;;9.23;3.72;;;;;;;23.74;28.53;99406.66;4792584;29;20086;-77
2022/05/08 11:43:45;;;;;;;5.35;3.70;;;;;;;23.62;29.07;99397.66;4786115;29;20512;-77
2022/05/08 11:46:18;;;;;;;8.55;4.22;;;;;;;23.37;29.37;99423.91;4795634;29;20041;-81
2022/05/08 11:48:46;;;;;;;7.95;4.47;;;;;;;22.84;29.67;99384.66;4779358;29;20130;-77
2022/05/08 11:51:13;;;;;;;9.13;4.13;;;;;;;22.29;30.76;99432.78;4776364;29;20062;-77
2022/05/08 11:53:42;;;;;;;10.40;4.60;;;;;;;21.76;31.42;99398.69;4765468;29;20522;-79
2022/05/08 11:56:30;;;;;;;8.48;4.57;;;;;;;21.13;32.34;99404.66;4790256;29;20121;-78
2022/05/08 11:59:15;;;;;;;5.55;4.10;;;;;;;20.63;33.00;99391.38;4776148;29;20103;-76
2022/05/08 12:01:53;;;;;;;9.43;4.10;;;;;;;20.33;36.13;99455.13;4788085;29;20051;-78
2022/05/08 12:04:33;;;;;;;46.92;6.13;;;;;;;20.67;36.84;99469.38;4799439;29;20043;-78
2022/05/08 12:07:12;;;;;;;13.18;3.17;;;;;;;20.68;38.80;99471.94;4794107;29;20070;-77
2022/05/08 12:09:44;;;;;;;9.43;3.25;;;;;;;20.37;40.94;99479.56;4788128;29;20043;-78
2022/05/08 12:12:27;;;;;;;9.75;3.58;;;;;;;19.89;41.36;99470.38;4796508;29;20045;-78
2022/05/08 12:14:54;;;;;;;6.75;4.28;;;;;;;18.95;47.23;99498.03;4771787;29;20046;-82
2022/05/08 12:17:20;;;;;;;7.50;4.03;;;;;;;18.28;48.31;99490.19;4774987;29;20031;-83